Time;durP1;ratioP1;P1;durP2;ratioP2;P2;SDS_P1;SDS_P2;PMS_P1;PMS_P2;Temp;Humidity;BMP_temperature;BMP_pressure;BME280_temperature;BME280_humidity;BME280_pressure;Samples;Min_cycle;Max_cycle;Signal;HPM_P1;HPM_P2
2024/02/24 00:02:06;;;;;;;2.83;1.30;;;;;;;2.00;75.42;100036.75;5054250;28;20441;-77
2024/02/24 00:04:35;;;;;;;2.83;1.27;;;;;;;2.00;75.83;100039.34;5054632;28;20474;-77
2024/02/24 00:07:01;;;;;;;1.60;0.97;;;;;;;2.00;75.76;100044.50;5054566;28;20538;-77
2024/02/24 00:09:28;;;;;;;1.93;1.33;;;;;;;1.99;75.71;100051.38;5054499;28;20450;-76
2024/02/24 00:11:55;;;;;;;3.50;1.27;;;;;;;1.98;76.03;100048.78;5054409;28;20447;-76
2024/02/24 00:14:22;;;;;;;3.63;1.27;;;;;;;1.98;75.84;100053.94;5054613;28;20531;-77
2024/02/24 00:16:49;;;;;;;2.03;1.47;;;;;;;1.97;76.07;100067.72;5054361;28;20437;-77
2024/02/24 00:19:16;;;;;;;2.67;1.53;;;;;;;1.96;75.84;100068.56;5054278;28;20458;-71
2024/02/24 00:21:44;;;;;;;2.47;1.40;;;;;;;1.95;75.77;100070.28;5054210;28;20551;-72
2024/02/24 00:24:11;;;;;;;2.27;1.40;;;;;;;1.94;75.59;100063.41;5054079;28;20481;-72
2024/02/24 00:26:38;;;;;;;3.70;1.37;;;;;;;1.92;75.97;100065.97;5054238;28;20431;-72
2024/02/24 00:29:05;;;;;;;3.33;1.10;;;;;;;1.92;75.86;100076.28;5053851;28;20808;-71
2024/02/24 00:31:32;;;;;;;8.23;2.10;;;;;;;1.92;75.64;100071.13;5054203;28;20468;-72
2024/02/24 00:33:59;;;;;;;4.57;1.60;;;;;;;1.91;76.14;100072.00;5054201;28;20450;-72
2024/02/24 00:36:25;;;;;;;4.17;1.53;;;;;;;1.91;75.74;100079.75;5053916;28;20517;-72
2024/02/24 00:38:54;;;;;;;2.47;1.53;;;;;;;1.89;76.00;100080.59;5053954;28;20447;-72
2024/02/24 00:41:21;;;;;;;4.40;1.47;;;;;;;1.89;75.83;100078.00;5053814;28;20450;-72
2024/02/24 00:43:47;;;;;;;4.77;1.47;;;;;;;1.89;75.95;100085.75;5053746;28;20996;-72
2024/02/24 00:46:14;;;;;;;3.37;1.43;;;;;;;1.88;75.85;100087.47;5053776;28;20934;-72
2024/02/24 00:48:41;;;;;;;4.87;1.60;;;;;;;1.88;75.84;100090.06;5053718;28;20447;-72
2024/02/24 00:51:08;;;;;;;4.50;1.53;;;;;;;1.88;75.74;100090.06;5053894;28;20431;-72
2024/02/24 00:53:35;;;;;;;2.37;1.33;;;;;;;1.87;76.13;100088.31;5053723;28;20434;-72
2024/02/24 00:56:04;;;;;;;3.53;1.23;;;;;;;1.88;75.70;100084.03;5053537;28;20813;-72
2024/02/24 00:58:31;;;;;;;2.40;1.20;;;;;;;1.87;75.87;100083.16;5053500;28;20436;-72
2024/02/24 01:00:57;;;;;;;4.23;1.33;;;;;;;1.86;75.71;100089.19;5053679;28;20455;-72
2024/02/24 01:03:24;;;;;;;5.47;1.60;;;;;;;1.85;75.89;100082.31;5053272;28;20436;-72
2024/02/24 01:05:51;;;;;;;3.17;1.50;;;;;;;1.86;75.91;100086.59;5053498;28;20440;-72
2024/02/24 01:08:18;;;;;;;2.63;1.37;;;;;;;1.85;76.16;100090.06;5053317;28;20437;-72
2024/02/24 01:10:45;;;;;;;2.67;1.63;;;;;;;1.87;76.30;100108.94;5053313;28;20443;-72
2024/02/24 01:13:13;;;;;;;5.17;2.20;;;;;;;1.84;75.81;100101.22;5052638;28;20432;-72
2024/02/24 01:15:40;;;;;;;4.20;1.40;;;;;;;1.84;75.89;100108.94;5053171;28;20446;-72
2024/02/24 01:18:07;;;;;;;2.83;1.60;;;;;;;1.84;75.81;100106.38;5053475;28;20431;-72
2024/02/24 01:20:34;;;;;;;2.93;1.40;;;;;;;1.83;76.14;100104.66;5053157;28;20440;-72
2024/02/24 01:23:01;;;;;;;2.07;1.40;;;;;;;1.83;75.76;100107.25;5053048;28;20947;-73
2024/02/24 01:25:28;;;;;;;3.73;1.63;;;;;;;1.83;75.85;100107.25;5052976;28;21016;-72
2024/02/24 01:27:55;;;;;;;2.37;1.57;;;;;;;1.84;76.12;100102.94;5053071;28;20434;-73
2024/02/24 01:30:24;;;;;;;3.20;1.27;;;;;;;1.83;75.89;100112.41;5053346;28;20435;-76
2024/02/24 01:32:51;;;;;;;3.37;1.40;;;;;;;1.82;76.23;100108.09;5053114;28;20524;-76
2024/02/24 01:35:18;;;;;;;3.13;1.33;;;;;;;1.83;76.06;100116.69;5052934;28;20447;-77
2024/02/24 01:37:45;;;;;;;3.63;1.77;;;;;;;1.82;76.04;100121.00;5052482;28;20447;-76
2024/02/24 01:40:12;;;;;;;5.03;1.47;;;;;;;1.82;75.84;100123.59;5052820;28;20434;-76
2024/02/24 01:42:42;;;;;;;2.10;1.30;;;;;;;1.81;75.87;100129.56;5053026;28;20449;-77
2024/02/24 01:45:10;;;;;;;3.57;1.13;;;;;;;1.83;76.13;100137.34;5052679;28;20981;-77
2024/02/24 01:47:38;;;;;;;4.13;1.20;;;;;;;1.81;76.01;100141.63;5052716;28;20450;-76
2024/02/24 01:50:06;;;;;;;3.30;1.40;;;;;;;1.78;76.03;100139.88;5038859;28;20443;-77
2024/02/24 01:52:34;;;;;;;3.10;1.50;;;;;;;1.79;76.03;100135.59;5032912;28;20439;-77
2024/02/24 01:55:03;;;;;;;5.13;1.90;;;;;;;1.78;76.05;100133.88;5032556;28;20565;-77
2024/02/24 01:57:36;;;;;;;2.77;1.80;;;;;;;1.79;76.23;100139.06;5032835;28;20440;-76
2024/02/24 02:00:04;;;;;;;3.30;1.13;;;;;;;1.80;76.01;100145.91;5032622;28;20447;-76
2024/02/24 02:02:31;;;;;;;3.60;1.53;;;;;;;1.79;76.02;100138.16;5032639;28;20437;-76
2024/02/24 02:05:00;;;;;;;4.00;1.60;;;;;;;1.78;76.04;100139.88;5032503;28;20492;-76
2024/02/24 02:07:26;;;;;;;4.07;1.47;;;;;;;1.78;75.96;100147.63;5032570;28;20812;-76
2024/02/24 02:09:54;;;;;;;2.40;1.40;;;;;;;1.78;76.09;100147.63;5032849;28;20435;-77
2024/02/24 02:12:21;;;;;;;4.07;1.43;;;;;;;1.77;75.98;100143.34;5032516;28;20443;-76
2024/02/24 02:14:48;;;;;;;2.37;1.30;;;;;;;1.78;76.04;100149.34;5032668;28;20447;-76
2024/02/24 02:17:15;;;;;;;2.03;1.43;;;;;;;1.78;75.77;100151.94;5032707;28;20461;-77
2024/02/24 02:19:42;;;;;;;2.60;1.40;;;;;;;1.77;75.94;100163.97;5032647;28;20437;-77
2024/02/24 02:22:14;;;;;;;2.63;1.40;;;;;;;1.77;76.15;100169.13;5032636;28;20440;-77
2024/02/24 02:24:42;;;;;;;3.90;1.50;;;;;;;1.77;76.20;100163.13;5035240;28;20900;-77
2024/02/24 02:27:09;;;;;;;4.77;1.60;;;;;;;1.77;76.10;100179.44;5036399;28;20446;-76
2024/02/24 02:29:36;;;;;;;1.37;0.97;;;;;;;1.77;76.21;100181.16;5036408;28;20434;-76
2024/02/24 02:32:03;;;;;;;3.57;1.33;;;;;;;1.76;76.13;100182.88;5036394;28;20970;-76
2024/02/24 02:34:29;;;;;;;3.57;1.40;;;;;;;1.74;76.02;100187.16;5036246;28;20439;-77
2024/02/24 02:36:56;;;;;;;6.57;1.70;;;;;;;1.74;76.13;100194.91;5036276;28;20446;-77
2024/02/24 02:39:24;;;;;;;3.60;1.57;;;;;;;1.71;76.41;100192.31;5036554;28;20431;-81
2024/02/24 02:41:52;;;;;;;1.77;1.20;;;;;;;1.74;75.92;100197.50;5036834;28;20444;-81
2024/02/24 02:44:19;;;;;;;3.03;1.50;;;;;;;1.73;75.83;100198.31;5036814;28;20479;-81
2024/02/24 02:46:47;;;;;;;1.90;1.53;;;;;;;1.73;76.00;100195.75;5036742;28;20444;-81
2024/02/24 02:49:14;;;;;;;1.93;1.33;;;;;;;1.73;75.86;100203.47;5036460;28;20432;-81
2024/02/24 02:51:41;;;;;;;3.70;1.23;;;;;;;1.69;76.01;100192.28;5036527;28;20440;-81
2024/02/24 02:54:08;;;;;;;3.70;1.23;;;;;;;1.71;76.23;100205.22;5036557;28;20446;-81
2024/02/24 02:56:35;;;;;;;2.53;1.10;;;;;;;1.70;76.27;100200.88;5036332;28;20471;-81
2024/02/24 02:59:03;;;;;;;4.53;1.30;;;;;;;1.69;76.07;100186.28;5036654;28;20438;-81
2024/02/24 03:01:30;;;;;;;3.27;1.43;;;;;;;1.70;76.31;100188.00;5036389;28;20438;-81
2024/02/24 03:03:57;;;;;;;1.53;1.23;;;;;;;1.68;76.24;100192.31;5036239;28;20463;-81
2024/02/24 03:06:24;;;;;;;3.30;1.40;;;;;;;1.68;75.89;100189.72;5036495;28;20485;-81
2024/02/24 03:08:51;;;;;;;3.10;1.20;;;;;;;1.68;76.16;100190.59;5036338;28;20501;-81
2024/02/24 03:11:18;;;;;;;6.90;1.60;;;;;;;1.68;76.00;100202.63;5036531;28;20431;-81
2024/02/24 03:13:45;;;;;;;4.63;1.30;;;;;;;1.64;75.89;100190.56;5036334;28;20932;-81
2024/02/24 03:16:18;;;;;;;3.87;1.27;;;;;;;1.67;75.80;100204.31;5036696;28;20445;-81
2024/02/24 03:18:45;;;;;;;1.23;1.10;;;;;;;1.67;76.12;100203.47;5036320;28;20456;-81
2024/02/24 03:21:12;;;;;;;4.33;1.60;;;;;;;1.65;75.76;100206.03;5035764;28;20446;-72
2024/02/24 03:23:38;;;;;;;3.10;1.23;;;;;;;1.66;75.75;100209.47;5035397;28;20427;-71
2024/02/24 03:26:05;;;;;;;4.23;1.43;;;;;;;1.65;76.04;100207.78;5035340;28;20490;-71
2024/02/24 03:28:32;;;;;;;2.97;1.40;;;;;;;1.63;76.03;100212.06;5035513;28;20435;-71
2024/02/24 03:30:59;;;;;;;4.53;1.40;;;;;;;1.63;76.11;100209.47;5035151;28;20432;-72
2024/02/24 03:33:27;;;;;;;3.10;1.27;;;;;;;1.63;76.30;100222.38;5035255;28;20440;-72
2024/02/24 03:35:54;;;;;;;2.40;1.30;;;;;;;1.61;76.25;100221.47;5034578;28;20454;-71
2024/02/24 03:38:21;;;;;;;1.57;1.10;;;;;;;1.61;76.30;100217.19;5045349;28;20446;-72
2024/02/24 03:40:48;;;;;;;1.77;1.20;;;;;;;1.60;76.06;100224.94;5055374;28;20449;-71
2024/02/24 03:43:15;;;;;;;3.03;1.23;;;;;;;1.60;76.00;100227.50;5055054;28;20441;-72
2024/02/24 03:45:41;;;;;;;2.43;1.10;;;;;;;1.59;76.17;100226.66;5055011;28;20482;-72
2024/02/24 03:48:08;;;;;;;1.47;1.10;;;;;;;1.58;75.92;100224.91;5054948;28;20786;-72
2024/02/24 03:50:37;;;;;;;1.97;1.00;;;;;;;1.59;76.03;100228.34;5054953;28;20438;-77
2024/02/24 03:53:04;;;;;;;2.30;1.20;;;;;;;1.58;76.00;100229.22;5054837;28;20446;-76
2024/02/24 03:55:31;;;;;;;2.40;1.30;;;;;;;1.58;76.01;100237.78;5054944;28;20462;-76
2024/02/24 03:57:58;;;;;;;2.33;1.30;;;;;;;1.58;76.11;100236.94;5054946;28;20456;-76
2024/02/24 04:00:25;;;;;;;5.53;1.40;;;;;;;1.57;76.09;100232.66;5054802;28;20809;-77
2024/02/24 04:02:52;;;;;;;3.27;1.30;;;;;;;1.57;76.15;100245.53;5054878;28;20446;-77
2024/02/24 04:05:18;;;;;;;6.60;1.53;;;;;;;1.57;75.98;100232.66;5054592;28;20491;-77
2024/02/24 04:07:47;;;;;;;2.30;1.30;;;;;;;1.55;76.01;100235.19;5054592;28;20525;-76
2024/02/24 04:10:14;;;;;;;3.10;1.00;;;;;;;1.55;76.38;100242.09;5054775;28;20443;-76
2024/02/24 04:12:40;;;;;;;4.00;1.30;;;;;;;1.55;76.00;100247.25;5054439;28;20450;-76
2024/02/24 04:15:08;;;;;;;2.70;1.47;;;;;;;1.54;76.13;100237.78;5054749;28;20438;-77
2024/02/24 04:17:35;;;;;;;2.80;1.10;;;;;;;1.49;76.18;100230.03;5054322;28;20440;-77
2024/02/24 04:20:01;;;;;;;2.07;1.20;;;;;;;1.51;76.71;100230.03;5054622;28;20449;-77
2024/02/24 04:22:28;;;;;;;3.47;1.20;;;;;;;1.51;76.12;100232.63;5054319;28;20437;-76
2024/02/24 04:24:57;;;;;;;1.43;1.20;;;;;;;1.52;76.58;100234.34;5054123;28;20473;-75
2024/02/24 04:27:23;;;;;;;4.13;1.20;;;;;;;1.51;76.12;100241.22;5054329;28;20432;-76
2024/02/24 04:29:50;;;;;;;2.20;1.10;;;;;;;1.51;76.20;100242.94;5054117;28;20440;-71
2024/02/24 04:32:17;;;;;;;4.53;1.73;;;;;;;1.51;76.23;100243.78;5054034;28;20518;-72
2024/02/24 04:34:44;;;;;;;4.70;1.13;;;;;;;1.52;76.32;100249.81;5054194;28;20435;-72
2024/02/24 04:37:11;;;;;;;2.47;1.17;;;;;;;1.51;76.47;100248.09;5054021;28;20946;-71
2024/02/24 04:39:38;;;;;;;5.23;1.43;;;;;;;1.51;76.52;100256.69;5054128;28;20927;-72
2024/02/24 04:42:06;;;;;;;2.60;1.00;;;;;;;1.52;76.27;100260.13;5053840;28;20943;-72
2024/02/24 04:44:34;;;;;;;3.50;1.10;;;;;;;1.45;76.39;100246.34;5053695;28;20447;-72
2024/02/24 04:47:00;;;;;;;7.77;1.50;;;;;;;1.53;76.57;100266.97;5052943;28;20430;-72
2024/02/24 04:49:27;;;;;;;1.10;1.00;;;;;;;1.53;76.33;100272.13;5053755;28;20451;-72
2024/02/24 04:51:54;;;;;;;1.33;1.23;;;;;;;1.53;76.49;100261.81;5053656;28;20802;-71
2024/02/24 04:54:22;;;;;;;2.70;1.20;;;;;;;1.53;76.46;100260.09;5053841;28;20813;-72
2024/02/24 04:56:49;;;;;;;2.73;1.10;;;;;;;1.54;76.48;100261.00;5053631;28;20442;-72
2024/02/24 04:59:18;;;;;;;4.73;1.33;;;;;;;1.54;76.41;100268.72;5053671;28;20442;-72
2024/02/24 05:01:44;;;;;;;1.50;1.00;;;;;;;1.54;76.69;100271.31;5053499;28;20443;-72
2024/02/24 05:04:11;;;;;;;2.60;1.20;;;;;;;1.56;76.36;100272.16;5053439;28;20432;-72
2024/02/24 05:06:38;;;;;;;3.60;0.93;;;;;;;1.56;76.70;100269.59;5053246;28;21022;-72
2024/02/24 05:09:08;;;;;;;2.33;1.17;;;;;;;1.56;76.83;100275.63;5053382;28;20924;-72
2024/02/24 05:11:35;;;;;;;1.33;1.03;;;;;;;1.57;76.78;100279.06;5053440;28;20442;-72
2024/02/24 05:14:02;;;;;;;1.73;1.10;;;;;;;1.58;76.63;100276.47;5053291;28;20927;-72
2024/02/24 05:16:32;;;;;;;4.10;1.30;;;;;;;1.58;76.45;100279.06;5053380;28;20926;-72
2024/02/24 05:19:00;;;;;;;2.80;1.30;;;;;;;1.59;76.60;100264.44;5053133;28;20506;-72
2024/02/24 05:21:27;;;;;;;1.63;0.93;;;;;;;1.60;76.51;100273.91;5053185;28;21013;-73
2024/02/24 05:23:53;;;;;;;1.30;1.10;;;;;;;1.61;76.43;100270.47;5053107;28;20444;-72
2024/02/24 05:26:24;;;;;;;1.20;0.97;;;;;;;1.62;76.60;100285.13;5053079;28;20478;-72
2024/02/24 05:28:51;;;;;;;1.37;1.20;;;;;;;1.59;76.35;100274.75;5053102;28;20441;-72
2024/02/24 05:31:18;;;;;;;3.80;1.40;;;;;;;1.62;76.38;100285.97;5053001;28;20964;-72
2024/02/24 05:33:47;;;;;;;2.43;1.10;;;;;;;1.61;76.32;100291.97;5052941;28;20456;-72
2024/02/24 05:36:14;;;;;;;1.40;1.10;;;;;;;1.62;76.41;100293.72;5052900;28;20445;-72
2024/02/24 05:38:41;;;;;;;2.60;1.20;;;;;;;1.61;76.40;100286.81;5052729;28;20492;-72
2024/02/24 05:41:08;;;;;;;0.87;0.87;;;;;;;1.64;76.35;100296.28;5053096;28;20441;-71
2024/02/24 05:43:35;;;;;;;3.37;1.07;;;;;;;1.62;76.41;100291.13;5052784;28;20444;-71
2024/02/24 05:46:06;;;;;;;3.73;1.00;;;;;;;1.63;76.25;100299.72;5052939;28;20474;-71
2024/02/24 05:48:33;;;;;;;1.47;1.30;;;;;;;1.63;76.25;100308.31;5052694;28;20482;-71
2024/02/24 05:51:03;;;;;;;2.67;1.10;;;;;;;1.63;76.17;100305.72;5052923;28;20480;-71
2024/02/24 05:53:30;;;;;;;2.03;1.43;;;;;;;1.64;76.25;100312.59;5052591;28;20444;-72
2024/02/24 05:55:58;;;;;;;1.73;0.97;;;;;;;1.64;76.40;100310.03;5052717;28;20483;-71
2024/02/24 05:58:24;;;;;;;1.93;1.10;;;;;;;1.65;76.54;100318.66;5052437;28;20839;-71
2024/02/24 06:00:51;;;;;;;3.70;1.00;;;;;;;1.64;76.40;100315.19;5052647;28;20991;-72
2024/02/24 06:03:18;;;;;;;3.50;1.10;;;;;;;1.65;76.41;100308.34;5052540;28;20438;-72
2024/02/24 06:05:45;;;;;;;1.47;0.90;;;;;;;1.65;76.68;100310.91;5052445;28;20998;-71
2024/02/24 06:08:13;;;;;;;2.27;1.27;;;;;;;1.66;76.34;100317.78;5052476;28;20873;-71
2024/02/24 06:10:40;;;;;;;1.70;1.20;;;;;;;1.66;76.24;100320.38;5052559;28;20448;-72
2024/02/24 06:13:07;;;;;;;2.30;1.20;;;;;;;1.66;76.55;100320.38;5052642;28;20433;-72
2024/02/24 06:15:34;;;;;;;2.77;1.10;;;;;;;1.67;76.47;100322.06;5052470;28;20442;-72
2024/02/24 06:18:01;;;;;;;1.73;1.17;;;;;;;1.67;76.25;100327.25;5052424;28;20443;-72
2024/02/24 06:20:28;;;;;;;1.53;1.20;;;;;;;1.67;76.58;100322.94;5052590;28;20450;-72
2024/02/24 06:22:54;;;;;;;1.57;1.20;;;;;;;1.68;76.19;100334.13;5052392;28;20444;-72
2024/02/24 06:25:23;;;;;;;4.13;1.30;;;;;;;1.68;76.46;100329.84;5052516;28;20440;-72
2024/02/24 06:27:50;;;;;;;3.53;1.40;;;;;;;1.68;76.69;100327.25;5052474;28;20951;-72
2024/02/24 06:30:17;;;;;;;1.47;1.10;;;;;;;1.69;76.45;100330.69;5052748;28;20918;-72
2024/02/24 06:32:44;;;;;;;4.67;1.20;;;;;;;1.69;76.49;100336.72;5052316;28;20437;-72
2024/02/24 06:35:13;;;;;;;2.57;1.17;;;;;;;1.69;76.50;100326.41;5052515;28;20440;-72
2024/02/24 06:37:42;;;;;;;3.60;1.23;;;;;;;1.70;76.65;100330.72;5052215;28;20438;-72
2024/02/24 06:40:10;;;;;;;3.50;1.30;;;;;;;1.70;76.70;100328.16;5052294;28;20443;-72
2024/02/24 06:42:38;;;;;;;2.67;1.13;;;;;;;1.71;76.79;100329.00;5052364;28;20928;-72
2024/02/24 06:45:06;;;;;;;1.97;1.20;;;;;;;1.72;76.80;100325.56;5052240;28;20451;-72
2024/02/24 06:47:33;;;;;;;4.63;1.63;;;;;;;1.73;76.50;100321.25;5052270;28;20494;-72
2024/02/24 06:50:00;;;;;;;2.27;1.00;;;;;;;1.74;76.40;100323.00;5052132;28;20819;-72
2024/02/24 06:52:27;;;;;;;2.37;1.00;;;;;;;1.74;76.35;100323.00;5052148;28;20924;-72
2024/02/24 06:54:54;;;;;;;3.13;1.37;;;;;;;1.75;76.77;100327.28;5052031;28;20832;-72
2024/02/24 06:57:20;;;;;;;3.10;1.50;;;;;;;1.77;76.48;100323.03;5052057;28;20837;-72
2024/02/24 06:59:49;;;;;;;3.50;0.90;;;;;;;1.77;76.78;100313.56;5052522;28;20877;-72
2024/02/24 07:02:15;;;;;;;2.63;1.33;;;;;;;1.79;76.44;100321.28;5051880;28;20439;-72
2024/02/24 07:04:43;;;;;;;1.47;1.03;;;;;;;1.80;76.72;100318.72;5052064;28;20435;-72
2024/02/24 07:07:10;;;;;;;2.90;1.17;;;;;;;1.79;76.73;100311.88;5051874;28;20477;-72
2024/02/24 07:09:37;;;;;;;2.57;1.10;;;;;;;1.81;76.49;100315.28;5052237;28;20431;-72
2024/02/24 07:12:05;;;;;;;3.33;1.13;;;;;;;1.83;76.52;100308.44;5055060;28;20438;-72
2024/02/24 07:14:33;;;;;;;3.33;1.00;;;;;;;1.84;76.81;100309.28;5055498;28;20436;-72
2024/02/24 07:17:01;;;;;;;3.77;1.30;;;;;;;1.86;76.58;100313.59;5055598;28;20870;-72
2024/02/24 07:19:28;;;;;;;2.00;1.10;;;;;;;1.81;76.86;100304.13;5055556;28;20435;-72
2024/02/24 07:21:55;;;;;;;2.93;1.30;;;;;;;1.89;76.53;100317.91;5055397;28;20447;-72
2024/02/24 07:24:21;;;;;;;1.83;1.07;;;;;;;1.89;76.71;100318.78;5055580;28;20444;-71
2024/02/24 07:26:48;;;;;;;5.00;1.13;;;;;;;1.91;76.65;100311.06;5055296;28;20501;-72
2024/02/24 07:29:15;;;;;;;2.77;1.20;;;;;;;1.92;76.45;100317.94;5055281;28;20440;-72
2024/02/24 07:31:42;;;;;;;2.00;1.10;;;;;;;1.93;76.75;100312.81;5055361;28;20446;-72
2024/02/24 07:34:11;;;;;;;3.43;1.20;;;;;;;1.95;76.71;100315.38;5055209;28;20437;-72
2024/02/24 07:36:37;;;;;;;1.13;0.90;;;;;;;1.96;76.58;100304.22;5054812;28;20923;-72
2024/02/24 07:39:05;;;;;;;2.97;1.10;;;;;;;1.97;76.56;100305.94;5055085;28;20436;-72
2024/02/24 07:41:32;;;;;;;2.63;1.00;;;;;;;1.98;76.37;100307.66;5055321;28;20467;-72
2024/02/24 07:43:58;;;;;;;2.27;1.20;;;;;;;2.00;76.55;100303.38;5055042;28;20427;-71
2024/02/24 07:46:29;;;;;;;3.57;1.43;;;;;;;2.03;76.68;100305.09;5054998;28;20474;-72
2024/02/24 07:48:56;;;;;;;2.17;1.10;;;;;;;2.04;76.53;100310.25;5054856;28;20453;-72
2024/02/24 07:51:25;;;;;;;1.73;0.97;;;;;;;2.06;76.68;100300.81;5054693;28;20942;-72
2024/02/24 07:53:52;;;;;;;2.23;1.10;;;;;;;2.07;76.78;100297.34;5054846;28;20490;-72
2024/02/24 07:56:19;;;;;;;2.47;1.00;;;;;;;2.10;76.70;100301.66;5055006;28;20982;-72
2024/02/24 07:58:46;;;;;;;3.00;1.13;;;;;;;2.10;76.36;100296.50;5054824;28;20442;-72
2024/02/24 08:01:13;;;;;;;1.10;0.90;;;;;;;2.05;76.76;100277.59;5054783;28;20444;-77
2024/02/24 08:03:40;;;;;;;1.53;1.13;;;;;;;2.06;76.77;100274.16;5054833;28;20440;-77
2024/02/24 08:06:07;;;;;;;3.00;1.20;;;;;;;2.15;76.62;100294.81;5054748;28;20485;-77
2024/02/24 08:08:36;;;;;;;4.13;1.40;;;;;;;2.19;76.71;100291.41;5054634;28;20444;-76
2024/02/24 08:11:04;;;;;;;3.20;1.10;;;;;;;2.14;76.87;100287.94;5054806;28;20445;-77
2024/02/24 08:13:31;;;;;;;3.70;1.00;;;;;;;2.22;76.47;100294.00;5054716;28;20528;-77
2024/02/24 08:16:03;;;;;;;1.00;1.00;;;;;;;2.20;76.60;100293.13;5054559;28;20960;-77
2024/02/24 08:18:30;;;;;;;3.70;1.10;;;;;;;2.27;76.71;100297.47;5054412;28;21027;-77
2024/02/24 08:20:58;;;;;;;3.77;1.07;;;;;;;2.26;76.52;100298.31;5054257;28;20444;-77
2024/02/24 08:23:25;;;;;;;2.17;1.10;;;;;;;2.28;76.56;100296.59;5054416;28;20440;-77
2024/02/24 08:25:54;;;;;;;2.17;1.10;;;;;;;2.33;76.52;100294.91;5054204;28;20455;-77
2024/02/24 08:28:21;;;;;;;2.70;0.90;;;;;;;2.37;76.77;100306.09;5054285;28;21183;-77
2024/02/24 08:30:47;;;;;;;6.07;1.30;;;;;;;2.40;76.63;100307.81;5054243;28;20813;-69
2024/02/24 08:33:14;;;;;;;1.43;1.03;;;;;;;2.42;76.60;100308.69;5054215;28;20432;-69
2024/02/24 08:35:43;;;;;;;2.47;1.10;;;;;;;2.44;76.52;100305.22;5054133;28;20443;-69
2024/02/24 08:38:10;;;;;;;3.83;1.50;;;;;;;2.47;76.54;100306.97;5054049;28;20475;-69
2024/02/24 08:40:37;;;;;;;1.40;1.00;;;;;;;2.49;76.38;100307.84;5054011;28;20961;-69
2024/02/24 08:43:05;;;;;;;5.00;1.00;;;;;;;2.52;76.47;100310.44;5053865;28;20448;-69
2024/02/24 08:45:32;;;;;;;2.00;1.07;;;;;;;2.54;76.44;100309.59;5053906;28;20816;-70
2024/02/24 08:47:59;;;;;;;1.30;0.63;;;;;;;2.56;76.41;100307.88;5054035;28;20570;-70
2024/02/24 08:50:25;;;;;;;1.70;1.20;;;;;;;2.59;76.43;100304.44;5053797;28;20440;-69
2024/02/24 08:52:52;;;;;;;1.17;1.00;;;;;;;2.61;76.48;100307.88;5053833;28;20445;-69
2024/02/24 08:55:19;;;;;;;2.63;1.10;;;;;;;2.64;76.29;100310.44;5053630;28;20462;-69
2024/02/24 08:57:46;;;;;;;1.93;0.93;;;;;;;2.66;76.28;100305.31;5053619;28;20932;-70
2024/02/24 09:00:15;;;;;;;2.67;0.80;;;;;;;2.68;76.54;100307.03;5053619;28;20455;-70
2024/02/24 09:02:42;;;;;;;4.20;1.00;;;;;;;2.70;76.16;100305.31;5053577;28;20444;-69
2024/02/24 09:05:09;;;;;;;0.90;0.80;;;;;;;2.73;76.32;100302.75;5053599;28;20451;-69
2024/02/24 09:07:36;;;;;;;1.70;1.00;;;;;;;2.75;76.51;100306.19;5053411;28;20476;-69
2024/02/24 09:10:03;;;;;;;3.20;1.00;;;;;;;2.72;76.32;100298.41;5053644;28;20444;-77
2024/02/24 09:12:30;;;;;;;2.53;0.83;;;;;;;2.80;76.24;100307.06;5053402;28;20455;-76
2024/02/24 09:14:57;;;;;;;2.83;1.13;;;;;;;2.83;76.26;100298.44;5053516;28;20435;-76
2024/02/24 09:17:25;;;;;;;2.50;1.10;;;;;;;2.84;76.25;100300.16;5053478;28;20441;-76
2024/02/24 09:19:52;;;;;;;2.83;1.00;;;;;;;2.87;76.17;100304.47;5053456;28;20425;-76
2024/02/24 09:22:19;;;;;;;5.93;1.10;;;;;;;2.89;76.11;100295.88;5053243;28;20802;-77
2024/02/24 09:24:45;;;;;;;0.93;0.93;;;;;;;2.92;76.15;100287.25;5053540;28;20939;-76
2024/02/24 09:27:12;;;;;;;2.50;1.00;;;;;;;2.93;76.05;100289.00;5053041;28;20485;-77
2024/02/24 09:29:39;;;;;;;2.47;1.00;;;;;;;2.95;75.81;100282.94;5053068;28;20445;-77
2024/02/24 09:32:07;;;;;;;3.10;1.03;;;;;;;2.97;75.91;100282.97;5053162;28;20440;-77
2024/02/24 09:34:35;;;;;;;1.90;1.00;;;;;;;2.98;76.11;100275.19;5052417;28;20436;-76
2024/02/24 09:37:03;;;;;;;3.50;0.93;;;;;;;3.00;75.96;100276.06;5042687;28;20938;-76
2024/02/24 09:39:30;;;;;;;2.10;1.10;;;;;;;3.00;75.90;100270.03;5033005;28;20438;-72
2024/02/24 09:42:00;;;;;;;1.57;1.00;;;;;;;3.05;75.95;100276.06;5032937;28;20442;-72
2024/02/24 09:44:28;;;;;;;2.60;0.90;;;;;;;3.05;75.87;100270.91;5033100;28;20510;-72
2024/02/24 09:46:58;;;;;;;2.87;0.97;;;;;;;3.07;75.84;100274.38;5032751;28;20527;-72
2024/02/24 09:49:28;;;;;;;1.87;0.93;;;;;;;3.09;75.70;100272.63;5033022;28;20443;-73
2024/02/24 09:51:56;;;;;;;1.27;0.90;;;;;;;3.09;75.73;100270.03;5032891;28;20480;-72
2024/02/24 09:54:24;;;;;;;1.47;1.03;;;;;;;3.11;75.71;100270.91;5032857;28;20453;-72
2024/02/24 09:56:53;;;;;;;2.47;1.10;;;;;;;3.11;75.60;100270.03;5033063;28;20492;-73
2024/02/24 09:59:22;;;;;;;3.87;0.90;;;;;;;3.13;75.75;100274.34;5032777;28;20950;-73
2024/02/24 10:01:50;;;;;;;3.57;0.97;;;;;;;3.16;75.51;100268.31;5032779;28;20955;-73
2024/02/24 10:04:18;;;;;;;0.97;0.83;;;;;;;3.17;75.63;100270.91;5032625;28;20446;-72
2024/02/24 10:06:45;;;;;;;1.37;0.80;;;;;;;3.17;75.82;100264.88;5032535;28;20998;-72
2024/02/24 10:09:14;;;;;;;3.27;1.27;;;;;;;3.20;75.58;100276.06;5032554;28;20443;-73
2024/02/24 10:11:41;;;;;;;2.07;1.20;;;;;;;3.22;75.57;100274.34;5032723;28;20956;-72
2024/02/24 10:14:09;;;;;;;0.90;0.80;;;;;;;3.23;75.60;100272.63;5032541;28;20949;-73
2024/02/24 10:16:37;;;;;;;2.90;1.20;;;;;;;3.24;75.41;100262.28;5032646;28;20447;-73
2024/02/24 10:19:06;;;;;;;1.83;0.80;;;;;;;3.26;75.72;100257.09;5032477;28;20440;-73
2024/02/24 10:21:33;;;;;;;4.00;1.10;;;;;;;3.27;75.68;100258.84;5032480;28;20453;-72
2024/02/24 10:24:00;;;;;;;1.80;0.90;;;;;;;3.27;75.56;100256.25;5032734;28;20888;-73
2024/02/24 10:26:29;;;;;;;4.23;1.20;;;;;;;3.29;75.54;100247.59;5032473;28;20448;-73
2024/02/24 10:28:56;;;;;;;3.93;0.90;;;;;;;3.29;75.33;100249.34;5032737;28;20943;-76
2024/02/24 10:31:26;;;;;;;1.20;0.80;;;;;;;3.31;75.28;100244.19;5032461;28;20936;-73
2024/02/24 10:33:54;;;;;;;2.77;1.10;;;;;;;3.32;75.55;100238.13;5032411;28;20500;-73
2024/02/24 10:36:22;;;;;;;2.73;1.50;;;;;;;3.33;75.41;100239.88;5032432;28;20443;-74
2024/02/24 10:38:50;;;;;;;2.17;1.30;;;;;;;3.33;75.68;100229.53;5032483;28;20451;-74
2024/02/24 10:41:18;;;;;;;1.53;1.00;;;;;;;3.34;75.59;100228.66;5032364;28;20457;-74
2024/02/24 10:43:49;;;;;;;2.73;0.90;;;;;;;3.37;75.52;100226.06;5032361;28;20448;-74
2024/02/24 10:46:16;;;;;;;1.73;1.00;;;;;;;3.38;75.41;100217.44;5034767;28;20446;-74
2024/02/24 10:48:44;;;;;;;2.70;0.90;;;;;;;3.39;75.40;100221.75;5036232;28;20486;-73
2024/02/24 10:51:13;;;;;;;3.47;1.10;;;;;;;3.34;75.19;100214.00;5036142;28;20961;-73
2024/02/24 10:53:43;;;;;;;3.43;1.10;;;;;;;3.41;75.23;100217.41;5036132;28;20954;-74
2024/02/24 10:56:12;;;;;;;1.93;1.20;;;;;;;3.41;75.14;100214.84;5036288;28;20470;-73
2024/02/24 10:58:39;;;;;;;2.97;1.17;;;;;;;3.43;75.26;100205.34;5036122;28;20528;-73
2024/02/24 11:01:08;;;;;;;2.37;1.00;;;;;;;3.45;75.35;100209.66;5035912;28;20443;-78
2024/02/24 11:03:35;;;;;;;1.37;1.00;;;;;;;3.46;75.14;100210.50;5035963;28;20430;-77
2024/02/24 11:06:03;;;;;;;2.83;1.07;;;;;;;3.46;75.07;100207.94;5035896;28;20445;-77
2024/02/24 11:08:37;;;;;;;3.33;1.20;;;;;;;3.45;75.24;100207.06;5036020;28;20500;-76
2024/02/24 11:11:06;;;;;;;5.30;1.30;;;;;;;3.50;75.07;100204.50;5035729;28;20850;-77
2024/02/24 11:13:33;;;;;;;1.33;1.10;;;;;;;3.50;74.90;100191.56;5035867;28;20841;-77
2024/02/24 11:16:00;;;;;;;1.80;1.00;;;;;;;3.50;75.11;100194.16;5035589;28;20453;-77
2024/02/24 11:18:56;;;;;;;2.50;1.00;;;;;;;3.51;74.94;100193.28;5035786;28;20450;-77
2024/02/24 11:22:02;;;;;;;1.13;0.80;;;;;;;3.51;75.09;100181.19;5035454;28;20437;-76
2024/02/24 11:24:33;;;;;;;2.47;1.00;;;;;;;3.51;75.00;100182.91;5035752;28;20939;-77
2024/02/24 11:27:00;;;;;;;2.20;1.30;;;;;;;3.53;74.86;100190.69;5035381;28;20495;-77
2024/02/24 11:29:28;;;;;;;4.03;1.30;;;;;;;3.49;74.92;100176.88;5035381;28;20445;-77
2024/02/24 11:32:09;;;;;;;2.80;1.30;;;;;;;3.53;74.95;100181.19;5035183;28;20464;-77
2024/02/24 11:34:42;;;;;;;9.03;2.87;;;;;;;3.52;74.84;100184.63;5035375;28;20451;-76
2024/02/24 11:37:10;;;;;;;3.27;1.70;;;;;;;3.53;74.76;100180.34;5035480;28;20452;-77